Aeroporto :
LOGIN :

Iscrizione | Disclaimer

   EN    FR    IT 

 










Sommario :    VFR   VFR Marginale   IFR   IFR Intensivo   IFR Molto Intensivo
Visibilità : 
Base nubi : 
>= 8 km
>= 3000ft
5 / 8 km
1000 / 3000 ft
1500m / 5 km
500 / 1000 ft
800 / 1500m
200 / 500 ft
< 800m
< 200 ft
Simboli :   Temporali  Nebbia  Neve Forte  Precipitazioni Forti  Vento > 20 kt
SIGMETs :   Varie  Temporali  Ghiacco  Turbolenza  Onda orograficha  Ceneri Vulcaniche






- Altitudine del aeroporto : 2059 ft
- Codice IATA : KZI


LGKZ - Filippos

ULTIMO METAR :
  • 032020Z AUTO VRB01KT //// -RA ////// 05/05 Q1015 RE//

METARs OBSOLETI :
  • 031950Z AUTO VRB02KT //// -RA ////// 05/05 Q1015 RE//
  • 031920Z AUTO VRB01KT //// -RA ////// 05/05 Q1015 RE//
  • 031850Z AUTO VRB02KT //// -RA ////// 05/05 Q1015 RE//
  • 031820Z AUTO VRB03KT //// -RA ////// 06/06 Q1015 RE//
  • 031750Z AUTO VRB03KT //// -RA ////// 06/06 Q1015 RE//

TAF N/A



MetMap, La meteo Aeronautica in un colpo d'occhio ! - Copyright ORBIFLY Dicembre 2007 - Disclaimer

ORBIFLY MET'MAP TEAM :

Programmazione e sviluppo : Alexandra Zaïnal
Concezione : Baudouin d'Aumeries
Aiuto per la programmazione : Marc-Olivier Méhu
Supporto tecnico e logistico : Manuel Goepfert
Aiuto per la traduzione : Arnaldo La Scala

Contatto : metmap@orbifly.com




FONTI E CREDITI :

   NOAA